Time;durP1;ratioP1;P1;durP2;ratioP2;P2;SDS_P1;SDS_P2;PMS_P1;PMS_P2;Temp;Humidity;BMP_temperature;BMP_pressure;BME280_temperature;BME280_humidity;BME280_pressure;Samples;Min_cycle;Max_cycle;Signal;HPM_P1;HPM_P2
2022/03/17 00:02:23;;;;;;;20.55;12.48;;;6.90;74.90;;;;;;5018441;28;20036;-80
2022/03/17 00:04:49;;;;;;;19.65;12.20;;;6.90;74.90;;;;;;4995591;28;20036;-79
2022/03/17 00:07:15;;;;;;;19.42;11.90;;;6.90;75.20;;;;;;5003993;28;20052;-78
2022/03/17 00:09:40;;;;;;;19.10;11.48;;;6.80;75.00;;;;;;5021360;28;20033;-78
2022/03/17 00:12:08;;;;;;;18.20;11.57;;;6.80;74.90;;;;;;5030612;28;20033;-78
2022/03/17 00:14:33;;;;;;;23.10;12.48;;;6.80;75.00;;;;;;5034833;28;20043;-79
2022/03/17 00:16:59;;;;;;;19.80;13.10;;;6.80;75.10;;;;;;5039860;28;20036;-79
2022/03/17 00:19:25;;;;;;;22.45;13.75;;;6.80;75.10;;;;;;5024713;28;20493;-79
2022/03/17 00:21:50;;;;;;;20.77;11.95;;;6.80;75.20;;;;;;5045802;28;20033;-78
2022/03/17 00:24:17;;;;;;;22.52;12.73;;;6.70;75.20;;;;;;5039000;28;20679;-79
2022/03/17 00:26:43;;;;;;;20.15;12.45;;;6.70;75.20;;;;;;5041759;28;20049;-78
2022/03/17 00:29:08;;;;;;;18.17;11.10;;;6.70;75.30;;;;;;5028221;28;20037;-78
2022/03/17 00:31:37;;;;;;;24.80;13.38;;;6.80;75.40;;;;;;5041967;28;20072;-79
2022/03/17 00:34:06;;;;;;;21.83;13.75;;;6.70;75.30;;;;;;5029682;28;20058;-78
2022/03/17 00:36:34;;;;;;;22.20;13.48;;;6.70;75.40;;;;;;5040659;28;20094;-78
2022/03/17 00:38:59;;;;;;;19.15;12.30;;;6.70;75.40;;;;;;5023202;28;20358;-78
2022/03/17 00:41:25;;;;;;;22.15;12.90;;;6.60;75.50;;;;;;5033066;28;20028;-80
2022/03/17 00:43:50;;;;;;;24.98;13.95;;;6.60;75.50;;;;;;5025523;28;20039;-78
2022/03/17 00:46:16;;;;;;;21.08;12.75;;;6.60;75.50;;;;;;5046143;28;20037;-78
2022/03/17 00:48:42;;;;;;;23.13;12.75;;;6.60;75.60;;;;;;5027463;28;20030;-78
2022/03/17 00:51:08;;;;;;;21.13;13.10;;;6.60;75.60;;;;;;5027715;28;20478;-78
2022/03/17 00:53:33;;;;;;;21.50;12.43;;;6.60;75.70;;;;;;5017748;28;20580;-78
2022/03/17 00:55:59;;;;;;;20.48;13.15;;;6.50;75.70;;;;;;5058742;28;20055;-79
2022/03/17 00:58:24;;;;;;;21.10;12.75;;;6.60;75.70;;;;;;5049996;28;20036;-78
2022/03/17 01:00:50;;;;;;;26.40;13.95;;;6.50;75.80;;;;;;5036780;28;20102;-78
2022/03/17 01:03:15;;;;;;;22.25;13.80;;;6.50;75.80;;;;;;5049463;28;20039;-78
2022/03/17 01:05:47;;;;;;;22.25;13.90;;;6.50;75.80;;;;;;5036647;28;20052;-78
2022/03/17 01:08:13;;;;;;;22.83;13.65;;;6.40;76.30;;;;;;5042278;28;20051;-78
2022/03/17 01:10:39;;;;;;;23.20;14.38;;;6.40;76.10;;;;;;5050291;28;20038;-79
2022/03/17 01:13:05;;;;;;;25.05;14.10;;;6.40;76.10;;;;;;5012182;28;20044;-79
2022/03/17 01:15:31;;;;;;;23.00;12.77;;;6.40;76.20;;;;;;5033960;28;20052;-78
2022/03/17 01:17:56;;;;;;;23.05;13.32;;;6.40;76.30;;;;;;5050530;28;20033;-77
2022/03/17 01:20:22;;;;;;;24.33;14.27;;;6.40;76.30;;;;;;5029581;28;20489;-79
2022/03/17 01:22:47;;;;;;;23.42;13.90;;;6.40;76.40;;;;;;5041007;28;20098;-78
2022/03/17 01:25:13;;;;;;;21.67;12.85;;;6.30;76.40;;;;;;5049659;28;20037;-79
2022/03/17 01:27:39;;;;;;;24.17;14.52;;;6.30;76.50;;;;;;5028586;28;20033;-78
2022/03/17 01:30:05;;;;;;;25.15;14.63;;;6.30;76.60;;;;;;5009491;28;20041;-78
2022/03/17 01:32:32;;;;;;;25.00;14.77;;;6.30;76.70;;;;;;5020349;28;20037;-78
2022/03/17 01:34:58;;;;;;;24.13;14.23;;;6.30;76.80;;;;;;5050203;28;20029;-77
2022/03/17 01:37:24;;;;;;;26.90;15.18;;;6.30;76.80;;;;;;5050172;28;20043;-78
2022/03/17 01:39:50;;;;;;;26.80;16.73;;;6.30;77.00;;;;;;5021275;28;20420;-78
2022/03/17 01:42:15;;;;;;;29.38;17.55;;;6.30;77.00;;;;;;5031708;28;20420;-78
2022/03/17 01:44:41;;;;;;;29.90;16.60;;;6.30;77.20;;;;;;5026888;28;20045;-79
2022/03/17 01:49:51;;;;;;;23.30;15.15;;;6.20;77.30;;;;;;5044344;28;20052;-78
2022/03/17 01:52:16;;;;;;;25.60;14.90;;;6.20;77.30;;;;;;5034122;28;20037;-79
2022/03/17 01:54:42;;;;;;;28.85;15.80;;;6.20;77.30;;;;;;5037756;28;20037;-78
2022/03/17 01:57:08;;;;;;;24.05;15.45;;;6.20;77.30;;;;;;5016909;28;20040;-78
2022/03/17 01:59:34;;;;;;;27.85;16.42;;;6.20;77.30;;;;;;5032284;28;20037;-78
2022/03/17 02:02:02;;;;;;;26.52;15.15;;;6.20;77.30;;;;;;5044044;28;20028;-77
2022/03/17 02:04:28;;;;;;;27.90;16.05;;;6.20;77.30;;;;;;4997792;28;20066;-78
2022/03/17 02:06:53;;;;;;;26.00;14.80;;;6.20;77.30;;;;;;5052415;28;20577;-79
2022/03/17 02:09:19;;;;;;;29.58;16.33;;;6.20;77.40;;;;;;5032669;28;20037;-78
2022/03/17 02:14:34;;;;;;;26.85;16.27;;;6.20;77.50;;;;;;5040491;28;20031;-77
2022/03/17 02:16:59;;;;;;;29.20;16.40;;;6.20;77.50;;;;;;5045162;28;20036;-79
2022/03/17 02:19:25;;;;;;;26.10;15.43;;;6.10;77.50;;;;;;5039565;28;20112;-77
2022/03/17 02:21:50;;;;;;;32.03;16.23;;;6.10;77.50;;;;;;5049325;28;20186;-77
2022/03/17 02:27:01;;;;;;;26.63;16.02;;;6.10;77.60;;;;;;5051007;28;20166;-79
2022/03/17 02:29:26;;;;;;;29.15;16.33;;;6.10;77.70;;;;;;5043780;28;20049;-79
2022/03/17 02:31:52;;;;;;;30.45;16.98;;;6.10;77.70;;;;;;5009801;28;20044;-77
2022/03/17 02:34:18;;;;;;;31.30;17.00;;;6.10;77.80;;;;;;5047123;28;20036;-79
2022/03/17 02:36:48;;;;;;;30.40;17.63;;;6.10;77.90;;;;;;5027383;28;20037;-78
2022/03/17 02:39:21;;;;;;;27.92;15.88;;;6.10;78.00;;;;;;5010588;28;20059;-79
2022/03/17 02:41:47;;;;;;;28.67;16.33;;;6.10;78.10;;;;;;5040527;28;20044;-78
2022/03/17 02:44:12;;;;;;;29.83;17.05;;;6.10;78.00;;;;;;5045474;28;20489;-78
2022/03/17 02:46:38;;;;;;;31.45;17.90;;;6.10;78.00;;;;;;5019201;28;20037;-78
2022/03/17 02:49:04;;;;;;;31.20;17.45;;;6.10;78.10;;;;;;5034752;28;20115;-78
2022/03/17 02:51:29;;;;;;;31.88;18.10;;;6.10;78.20;;;;;;5022155;28;20123;-78
2022/03/17 02:53:55;;;;;;;31.05;17.42;;;6.10;78.40;;;;;;5029238;28;20153;-77
2022/03/17 02:56:20;;;;;;;30.20;17.20;;;6.10;78.30;;;;;;5048000;28;20037;-79
2022/03/17 02:58:46;;;;;;;27.13;16.48;;;6.10;78.40;;;;;;5027698;28;20049;-78
2022/03/17 03:01:11;;;;;;;32.65;17.15;;;6.10;78.40;;;;;;5030095;28;20114;-78
2022/03/17 03:03:37;;;;;;;27.85;16.38;;;6.10;78.40;;;;;;5048913;28;20025;-78
2022/03/17 03:06:02;;;;;;;31.52;16.65;;;6.10;78.40;;;;;;5028996;28;20047;-79
2022/03/17 03:08:28;;;;;;;26.88;16.80;;;6.10;78.40;;;;;;5043583;28;20059;-77
2022/03/17 03:10:54;;;;;;;28.40;16.88;;;6.10;78.40;;;;;;5023678;28;20063;-79
2022/03/17 03:13:20;;;;;;;27.80;16.35;;;6.10;78.40;;;;;;5046221;28;20050;-79
2022/03/17 03:15:45;;;;;;;29.60;16.95;;;6.10;78.50;;;;;;5027748;28;20902;-78
2022/03/17 03:18:11;;;;;;;28.90;17.42;;;6.10;78.50;;;;;;5028662;28;20033;-79
2022/03/17 03:20:38;;;;;;;36.97;18.00;;;6.10;78.50;;;;;;5014887;28;20170;-78
2022/03/17 03:23:04;;;;;;;29.73;17.10;;;6.10;78.50;;;;;;5029633;28;20040;-80
2022/03/17 03:25:29;;;;;;;30.25;17.77;;;6.10;78.50;;;;;;5031308;28;20037;-78
2022/03/17 03:27:55;;;;;;;29.27;17.73;;;6.10;78.50;;;;;;5044345;28;20033;-80
2022/03/17 03:30:20;;;;;;;28.55;17.05;;;6.10;78.50;;;;;;5046841;28;20059;-79
2022/03/17 03:32:47;;;;;;;30.13;17.75;;;6.10;78.50;;;;;;5039877;28;20773;-78
2022/03/17 03:37:57;;;;;;;31.77;18.52;;;6.10;78.60;;;;;;5042873;28;20677;-78
2022/03/17 03:40:23;;;;;;;30.63;17.40;;;6.10;78.60;;;;;;5039994;28;20065;-78
2022/03/17 03:42:48;;;;;;;29.75;16.80;;;6.10;78.60;;;;;;5047887;28;20096;-78
2022/03/17 03:45:14;;;;;;;29.77;17.17;;;6.10;78.60;;;;;;5026659;28;20040;-79
2022/03/17 03:47:39;;;;;;;32.75;17.90;;;6.10;78.60;;;;;;5045418;28;20477;-79
2022/03/17 03:50:05;;;;;;;31.98;17.55;;;6.10;78.60;;;;;;5015950;28;20045;-78
2022/03/17 03:52:31;;;;;;;33.55;18.40;;;6.10;78.70;;;;;;5016069;28;20128;-78
2022/03/17 03:54:56;;;;;;;34.03;18.60;;;6.10;78.70;;;;;;5046538;28;20393;-79
2022/03/17 03:57:22;;;;;;;29.25;17.77;;;6.10;78.70;;;;;;5050172;28;20568;-77
2022/03/17 03:59:48;;;;;;;33.03;19.45;;;6.10;78.80;;;;;;5046152;28;20778;-78
2022/03/17 04:02:14;;;;;;;34.83;18.85;;;6.10;78.80;;;;;;5032071;28;20028;-79
2022/03/17 04:04:40;;;;;;;34.53;19.60;;;6.10;78.90;;;;;;5049367;28;20033;-79
2022/03/17 04:07:08;;;;;;;33.67;18.52;;;6.10;78.90;;;;;;5023778;28;20029;-78
2022/03/17 04:09:35;;;;;;;32.00;18.15;;;6.00;79.00;;;;;;5032455;28;20048;-79
2022/03/17 04:12:01;;;;;;;35.20;19.63;;;6.00;78.90;;;;;;5048533;28;20041;-80
2022/03/17 04:14:27;;;;;;;34.17;20.17;;;6.00;79.00;;;;;;5007439;28;20059;-79
2022/03/17 04:16:53;;;;;;;35.90;20.17;;;6.00;80.00;;;;;;5025418;28;20037;-78
2022/03/17 04:19:18;;;;;;;32.05;19.20;;;6.00;79.20;;;;;;5025501;28;20082;-78
2022/03/17 04:21:45;;;;;;;32.70;19.80;;;6.00;79.30;;;;;;5023551;28;20029;-78
2022/03/17 04:24:10;;;;;;;34.10;18.85;;;6.00;79.20;;;;;;5022001;28;20145;-79
2022/03/17 04:26:36;;;;;;;31.65;17.83;;;6.00;79.30;;;;;;5042590;28;20033;-78
2022/03/17 04:29:01;;;;;;;34.22;19.08;;;6.00;79.20;;;;;;5044986;28;20159;-79
2022/03/17 04:31:28;;;;;;;35.47;19.52;;;6.00;79.20;;;;;;5041447;28;20052;-78
2022/03/17 04:33:54;;;;;;;36.03;20.45;;;6.00;79.20;;;;;;5043889;28;20251;-77
2022/03/17 04:36:20;;;;;;;32.50;18.13;;;6.00;79.20;;;;;;5045809;28;20110;-78
2022/03/17 04:38:45;;;;;;;31.85;18.95;;;6.00;79.30;;;;;;5037135;28;20121;-79
2022/03/17 04:41:11;;;;;;;32.60;19.15;;;6.00;79.40;;;;;;5039965;28;20037;-78
2022/03/17 04:43:37;;;;;;;35.70;20.25;;;6.00;79.40;;;;;;5023119;28;20064;-78
2022/03/17 04:46:02;;;;;;;32.05;18.52;;;6.00;79.30;;;;;;5013739;28;20028;-79
2022/03/17 04:48:28;;;;;;;37.85;20.65;;;6.00;79.40;;;;;;5035450;28;20061;-78
2022/03/17 04:50:54;;;;;;;34.80;19.60;;;6.00;79.50;;;;;;5035370;28;20040;-79
2022/03/17 04:53:29;;;;;;;34.72;19.38;;;6.00;79.60;;;;;;5033859;28;20067;-79
2022/03/17 04:55:59;;;;;;;32.63;19.08;;;6.00;79.60;;;;;;5015426;28;20064;-80
2022/03/17 04:58:25;;;;;;;31.90;18.52;;;6.00;79.70;;;;;;5037207;28;20082;-80
2022/03/17 05:00:52;;;;;;;33.88;19.02;;;6.00;79.70;;;;;;5030638;28;20029;-80
2022/03/17 05:03:19;;;;;;;32.60;21.02;;;6.00;79.70;;;;;;5059006;28;20037;-77
2022/03/17 05:05:44;;;;;;;33.95;21.33;;;6.00;79.80;;;;;;5017678;28;20620;-78
2022/03/17 05:08:10;;;;;;;35.72;20.30;;;6.00;79.80;;;;;;5033879;28;20159;-79
2022/03/17 05:10:36;;;;;;;36.22;21.15;;;6.00;79.90;;;;;;5025904;28;20041;-80
2022/03/17 05:13:05;;;;;;;38.63;21.60;;;6.00;79.90;;;;;;5026350;28;20060;-79
2022/03/17 05:15:30;;;;;;;38.10;21.55;;;6.10;80.20;;;;;;5018459;28;20044;-79
2022/03/17 05:17:56;;;;;;;38.92;21.52;;;6.00;80.00;;;;;;5042684;28;20033;-79
2022/03/17 05:20:22;;;;;;;36.03;20.92;;;6.00;80.10;;;;;;5016003;28;20092;-79
2022/03/17 05:22:48;;;;;;;37.85;20.33;;;6.10;80.20;;;;;;5005735;28;20038;-78
2022/03/17 05:25:13;;;;;;;35.75;21.30;;;6.10;80.20;;;;;;5012751;28;20410;-80
2022/03/17 05:27:39;;;;;;;35.40;21.13;;;6.10;80.30;;;;;;5010400;28;20037;-79
2022/03/17 05:30:06;;;;;;;39.67;22.13;;;6.10;80.40;;;;;;5020810;28;20037;-79
2022/03/17 05:32:32;;;;;;;37.67;21.77;;;6.10;80.40;;;;;;5027229;28;20044;-79
2022/03/17 05:34:58;;;;;;;37.20;22.05;;;6.10;80.50;;;;;;4998724;28;20805;-79
2022/03/17 05:37:24;;;;;;;36.42;20.50;;;6.10;80.50;;;;;;5039802;28;20052;-78
2022/03/17 05:39:50;;;;;;;37.40;21.17;;;6.10;80.60;;;;;;5045467;28;20037;-79
2022/03/17 05:42:16;;;;;;;38.25;21.05;;;6.10;80.60;;;;;;5026446;28;20226;-78
2022/03/17 05:44:42;;;;;;;31.85;18.98;;;6.10;80.60;;;;;;5024487;28;20079;-78
2022/03/17 05:47:07;;;;;;;38.35;22.40;;;6.20;80.70;;;;;;5027347;28;20093;-80
2022/03/17 05:49:33;;;;;;;40.28;23.13;;;6.10;80.60;;;;;;5024084;28;20033;-79
2022/03/17 05:51:59;;;;;;;39.47;23.42;;;6.10;80.60;;;;;;5029144;28;20404;-80
2022/03/17 05:54:25;;;;;;;37.70;22.70;;;6.10;80.80;;;;;;5044874;28;20701;-79
2022/03/17 05:56:50;;;;;;;42.47;22.58;;;6.20;80.80;;;;;;5041952;28;20123;-79
2022/03/17 05:59:16;;;;;;;39.53;21.58;;;6.10;80.90;;;;;;5028727;28;20029;-80
2022/03/17 06:01:41;;;;;;;42.80;23.08;;;6.10;80.90;;;;;;5020919;28;20028;-79
2022/03/17 06:04:07;;;;;;;36.60;20.48;;;6.10;80.90;;;;;;5044041;28;20100;-79
2022/03/17 06:06:33;;;;;;;38.20;22.48;;;6.20;81.00;;;;;;5028712;28;20033;-79
2022/03/17 06:08:58;;;;;;;40.45;22.85;;;6.20;81.00;;;;;;5027559;28;20033;-79
2022/03/17 06:11:24;;;;;;;43.40;23.55;;;6.20;81.10;;;;;;5033899;28;20021;-79
2022/03/17 06:13:49;;;;;;;39.22;22.75;;;6.20;81.10;;;;;;5025518;28;20036;-79
2022/03/17 06:16:15;;;;;;;37.95;21.58;;;6.20;81.20;;;;;;5016495;28;20037;-78
2022/03/17 06:18:41;;;;;;;40.13;22.58;;;6.20;81.30;;;;;;5042697;28;20037;-80
2022/03/17 06:21:07;;;;;;;44.10;24.75;;;6.20;81.30;;;;;;5046880;28;20040;-79
2022/03/17 06:23:33;;;;;;;46.95;26.48;;;6.30;81.40;;;;;;5042800;28;20033;-79
2022/03/17 06:25:59;;;;;;;39.75;23.77;;;6.30;81.40;;;;;;5045323;28;20039;-78
2022/03/17 06:28:24;;;;;;;40.33;23.42;;;6.30;81.40;;;;;;5037552;28;20060;-80
2022/03/17 06:30:51;;;;;;;39.35;23.73;;;6.40;81.60;;;;;;5008760;28;20056;-79
2022/03/17 06:33:17;;;;;;;51.88;28.73;;;6.40;81.60;;;;;;5044069;28;20037;-79
2022/03/17 06:35:42;;;;;;;57.67;31.80;;;6.40;81.50;;;;;;5016979;28;20043;-79
2022/03/17 06:38:08;;;;;;;55.55;31.48;;;6.40;81.60;;;;;;5020338;28;20094;-79
2022/03/17 06:40:35;;;;;;;54.38;30.13;;;6.50;81.60;;;;;;5026931;28;20025;-80
2022/03/17 06:43:01;;;;;;;56.67;31.75;;;6.50;81.60;;;;;;5021040;28;20029;-81
2022/03/17 06:45:27;;;;;;;51.58;27.55;;;6.50;81.60;;;;;;5014540;28;20061;-81
2022/03/17 06:47:53;;;;;;;46.72;26.52;;;6.50;81.60;;;;;;5018880;28;20041;-80
2022/03/17 06:50:20;;;;;;;47.35;25.55;;;6.50;81.60;;;;;;5033140;28;20401;-81
2022/03/17 06:52:45;;;;;;;45.03;24.75;;;6.60;81.70;;;;;;5000647;28;20165;-80
2022/03/17 06:55:11;;;;;;;44.10;25.58;;;6.60;81.70;;;;;;5014890;28;22773;-77
2022/03/17 06:57:36;;;;;;;52.10;26.77;;;6.60;81.70;;;;;;5044778;28;20071;-77
2022/03/17 07:00:07;;;;;;;47.50;27.80;;;6.60;81.70;;;;;;5034504;28;20037;-77
2022/03/17 07:02:32;;;;;;;48.03;28.13;;;6.60;81.80;;;;;;4998731;28;20043;-77
2022/03/17 07:04:58;;;;;;;48.80;26.40;;;6.70;81.70;;;;;;5017981;28;20037;-78
2022/03/17 07:07:23;;;;;;;43.42;25.10;;;6.70;81.80;;;;;;5032905;28;20486;-80
2022/03/17 07:09:50;;;;;;;47.00;26.95;;;6.70;81.80;;;;;;5037942;28;20084;-80
2022/03/17 07:12:16;;;;;;;41.72;25.30;;;6.80;81.90;;;;;;5028817;28;20122;-80
2022/03/17 07:14:45;;;;;;;37.75;23.50;;;6.80;81.80;;;;;;5006169;28;20029;-80
2022/03/17 07:17:10;;;;;;;41.85;23.10;;;6.80;81.80;;;;;;5038520;28;20037;-80
2022/03/17 07:19:36;;;;;;;39.90;23.38;;;6.90;81.80;;;;;;5029920;28;20026;-79
2022/03/17 07:22:02;;;;;;;36.45;23.67;;;6.90;81.60;;;;;;5042862;28;20036;-79
2022/03/17 07:24:28;;;;;;;35.08;21.30;;;7.00;81.50;;;;;;5039455;28;20036;-78
2022/03/17 07:26:53;;;;;;;39.10;22.25;;;7.00;81.30;;;;;;5038000;28;20033;-79
2022/03/17 07:29:19;;;;;;;35.17;21.60;;;7.10;81.20;;;;;;5010041;28;20029;-79
2022/03/17 07:31:47;;;;;;;37.05;20.83;;;7.10;81.10;;;;;;5020656;28;20606;-78
2022/03/17 07:34:13;;;;;;;40.08;22.33;;;7.10;80.90;;;;;;5039888;28;20049;-78
2022/03/17 07:36:40;;;;;;;36.25;21.55;;;7.20;80.80;;;;;;5045330;28;20491;-77
2022/03/17 07:39:06;;;;;;;37.13;21.67;;;7.20;80.70;;;;;;5041162;28;20082;-79
2022/03/17 07:41:31;;;;;;;38.10;23.33;;;7.30;80.60;;;;;;5042703;28;20524;-77
2022/03/17 07:43:57;;;;;;;43.63;24.20;;;7.30;80.60;;;;;;5036086;28;20025;-78
2022/03/17 07:46:23;;;;;;;38.40;23.70;;;7.40;80.50;;;;;;5045195;28;20033;-78
2022/03/17 07:48:49;;;;;;;36.05;22.58;;;7.40;80.50;;;;;;5058363;28;20033;-77
2022/03/17 07:51:14;;;;;;;39.70;24.45;;;7.40;80.50;;;;;;5039835;28;20093;-78
2022/03/17 07:53:40;;;;;;;37.28;23.65;;;7.50;80.60;;;;;;5022301;28;20149;-78
2022/03/17 07:56:06;;;;;;;36.85;22.35;;;7.50;80.50;;;;;;5018903;28;20102;-78
2022/03/17 07:58:32;;;;;;;36.15;23.70;;;7.60;80.50;;;;;;5001046;28;20824;-78
2022/03/17 08:00:58;;;;;;;46.22;24.98;;;7.60;80.40;;;;;;5017348;28;20059;-78
2022/03/17 08:03:23;;;;;;;35.83;23.48;;;7.60;80.40;;;;;;5005829;28;20457;-78
2022/03/17 08:05:49;;;;;;;38.65;23.10;;;7.70;80.40;;;;;;5014060;28;20134;-78
2022/03/17 08:08:15;;;;;;;37.22;22.80;;;7.70;80.20;;;;;;5039995;28;20101;-78
2022/03/17 08:10:41;;;;;;;38.97;24.48;;;7.80;80.20;;;;;;5034728;28;20038;-79
2022/03/17 08:13:08;;;;;;;36.60;23.40;;;7.80;80.10;;;;;;5019083;28;20670;-78
2022/03/17 08:15:34;;;;;;;35.72;23.02;;;7.90;80.00;;;;;;5013712;28;20044;-79
2022/03/17 08:18:00;;;;;;;36.20;22.52;;;7.90;79.90;;;;;;5036167;28;20037;-79
2022/03/17 08:20:26;;;;;;;36.28;22.33;;;8.00;79.80;;;;;;5039665;28;20033;-77
2022/03/17 08:22:51;;;;;;;35.22;21.70;;;8.00;79.70;;;;;;5037288;28;20033;-78
2022/03/17 08:25:20;;;;;;;35.83;21.10;;;8.10;79.60;;;;;;5009852;28;20043;-79
2022/03/17 08:27:45;;;;;;;36.53;21.27;;;8.10;79.40;;;;;;5038580;28;20205;-78
2022/03/17 08:30:11;;;;;;;33.70;21.70;;;8.20;79.30;;;;;;5053152;28;20780;-76
2022/03/17 08:32:38;;;;;;;37.97;22.65;;;8.20;79.10;;;;;;5014067;28;20707;-78
2022/03/17 08:35:05;;;;;;;29.80;20.70;;;8.30;79.10;;;;;;5002408;28;20107;-79
2022/03/17 08:37:30;;;;;;;36.53;21.67;;;8.30;78.90;;;;;;5044592;28;20037;-79
2022/03/17 08:39:56;;;;;;;35.20;22.05;;;8.40;78.80;;;;;;5020442;28;20497;-78
2022/03/17 08:42:21;;;;;;;38.35;21.00;;;8.50;78.70;;;;;;5036838;28;20515;-78
2022/03/17 08:44:47;;;;;;;34.30;21.70;;;8.50;78.60;;;;;;5019149;28;20604;-78
2022/03/17 08:49:57;;;;;;;33.85;20.23;;;8.60;78.30;;;;;;5035833;28;20055;-79
2022/03/17 08:52:22;;;;;;;32.22;19.92;;;8.70;78.20;;;;;;5036695;28;20086;-78
2022/03/17 08:54:48;;;;;;;31.90;20.38;;;8.70;78.00;;;;;;5018311;28;20036;-79
2022/03/17 08:57:13;;;;;;;34.75;20.70;;;8.80;77.90;;;;;;5024801;28;20032;-79
2022/03/17 08:59:39;;;;;;;33.58;19.88;;;8.80;77.70;;;;;;5034244;28;20547;-79
2022/03/17 09:02:10;;;;;;;36.78;21.90;;;8.90;77.60;;;;;;5005199;28;20043;-79
2022/03/17 09:04:36;;;;;;;35.55;20.55;;;8.90;77.50;;;;;;5033880;28;20509;-78
2022/03/17 09:07:02;;;;;;;37.08;21.80;;;9.00;77.40;;;;;;5023022;28;20409;-79
2022/03/17 09:09:35;;;;;;;34.20;20.63;;;9.10;77.30;;;;;;5021946;28;20037;-78
2022/03/17 09:12:04;;;;;;;36.10;20.88;;;9.10;77.20;;;;;;5061013;28;20048;-79
2022/03/17 09:14:30;;;;;;;34.85;20.88;;;9.20;77.00;;;;;;5018592;28;20115;-78
2022/03/17 09:16:56;;;;;;;36.67;21.55;;;9.20;76.70;;;;;;5036555;28;20446;-80
2022/03/17 09:19:22;;;;;;;37.42;22.35;;;9.30;76.60;;;;;;5040320;28;20033;-80
2022/03/17 09:21:48;;;;;;;35.15;20.98;;;9.30;76.60;;;;;;5030503;28;20071;-78
2022/03/17 09:24:13;;;;;;;35.03;21.45;;;9.40;76.40;;;;;;5014989;28;20029;-78
2022/03/17 09:26:39;;;;;;;33.17;21.45;;;9.40;76.40;;;;;;5041140;28;20031;-79
2022/03/17 09:29:04;;;;;;;32.17;20.92;;;9.50;76.30;;;;;;5043280;28;20072;-79
2022/03/17 09:31:30;;;;;;;32.90;20.50;;;9.60;76.20;;;;;;5036059;28;20650;-78
2022/03/17 09:33:56;;;;;;;33.58;20.08;;;9.60;76.00;;;;;;5020909;28;20489;-78
2022/03/17 09:36:22;;;;;;;34.88;20.95;;;9.70;75.90;;;;;;5020538;28;20055;-79
2022/03/17 09:41:33;;;;;;;33.13;21.98;;;9.80;75.60;;;;;;5041927;28;20390;-79
2022/03/17 09:43:58;;;;;;;31.67;21.15;;;9.80;75.50;;;;;;5025648;28;20036;-79
2022/03/17 09:46:24;;;;;;;33.30;21.40;;;9.90;75.30;;;;;;5034088;28;20032;-79
2022/03/17 09:48:54;;;;;;;34.60;22.02;;;9.90;75.20;;;;;;5008361;28;20481;-78
2022/03/17 09:51:22;;;;;;;34.22;21.23;;;10.00;75.10;;;;;;5032726;28;20310;-80
2022/03/17 09:53:47;;;;;;;38.08;21.83;;;10.00;74.80;;;;;;5047453;28;20545;-80
2022/03/17 09:56:13;;;;;;;35.40;22.20;;;10.10;74.70;;;;;;5018158;28;20125;-79
2022/03/17 09:58:38;;;;;;;33.05;22.00;;;10.20;74.60;;;;;;5028075;28;20052;-78
2022/03/17 10:01:05;;;;;;;35.22;21.52;;;10.20;74.40;;;;;;5022002;28;20057;-79
2022/03/17 10:03:34;;;;;;;32.90;21.17;;;10.30;74.30;;;;;;5038542;28;20036;-78
2022/03/17 10:06:05;;;;;;;38.67;21.67;;;10.30;74.20;;;;;;5018363;28;20065;-79
2022/03/17 10:08:33;;;;;;;33.63;21.17;;;10.40;74.10;;;;;;5032146;28;20052;-79
2022/03/17 10:10:58;;;;;;;34.13;21.48;;;10.50;73.90;;;;;;5036983;28;20107;-79
2022/03/17 10:13:25;;;;;;;31.55;21.10;;;10.50;73.80;;;;;;5040675;28;20108;-78
2022/03/17 10:16:28;;;;;;;28.50;19.92;;;10.60;73.70;;;;;;5036165;28;20124;-78
2022/03/17 10:19:01;;;;;;;30.65;19.67;;;10.60;73.20;;;;;;5040788;28;20044;-78
2022/03/17 10:21:28;;;;;;;34.42;20.52;;;10.70;73.20;;;;;;5024318;28;20025;-79
2022/03/17 10:24:01;;;;;;;34.78;22.23;;;10.70;73.20;;;;;;5041143;28;20030;-79
2022/03/17 10:26:32;;;;;;;33.70;21.45;;;10.80;72.90;;;;;;5043069;28;20029;-79
2022/03/17 10:29:12;;;;;;;43.17;24.60;;;10.90;72.80;;;;;;5012954;28;20029;-78
2022/03/17 10:32:06;;;;;;;57.08;29.30;;;10.90;72.60;;;;;;5045877;28;20064;-76
2022/03/17 10:34:56;;;;;;;43.00;25.48;;;11.00;72.40;;;;;;5064733;28;20013;-78
2022/03/17 10:37:23;;;;;;;35.92;22.63;;;11.10;72.30;;;;;;5029747;28;20025;-79
2022/03/17 10:39:55;;;;;;;37.17;22.27;;;11.20;72.40;;;;;;5024295;28;22400;-79
2022/03/17 10:42:30;;;;;;;35.20;22.50;;;11.30;72.20;;;;;;5018231;28;20086;-78
2022/03/17 10:44:59;;;;;;;36.05;22.73;;;11.40;72.00;;;;;;5007452;28;20047;-79
2022/03/17 10:47:30;;;;;;;31.70;20.35;;;11.50;71.80;;;;;;5020645;28;20048;-79
2022/03/17 10:50:00;;;;;;;32.10;21.00;;;11.50;71.40;;;;;;5023874;28;20682;-79
2022/03/17 10:52:25;;;;;;;33.95;20.67;;;11.60;71.20;;;;;;5049008;28;20661;-79
2022/03/17 10:54:57;;;;;;;31.85;20.45;;;11.70;71.20;;;;;;5034135;28;20107;-78
2022/03/17 10:57:25;;;;;;;;;;;11.80;71.00;;;;;;5011318;28;20569;-79
2022/03/17 10:59:53;;;;;;;32.90;20.67;;;11.90;71.00;;;;;;5039368;28;20431;-79
2022/03/17 11:02:21;;;;;;;34.55;21.35;;;12.00;70.80;;;;;;5022982;28;20048;-78
2022/03/17 11:04:47;;;;;;;29.98;19.52;;;12.10;70.60;;;;;;5037824;28;20053;-78
2022/03/17 11:07:14;;;;;;;30.55;20.35;;;12.10;70.40;;;;;;5022427;28;20108;-79
2022/03/17 11:09:43;;;;;;;31.52;20.10;;;12.20;70.30;;;;;;5024238;28;20490;-75
2022/03/17 11:12:11;;;;;;;36.22;21.30;;;12.30;70.10;;;;;;5011309;28;20045;-79
2022/03/17 11:14:42;;;;;;;32.72;21.33;;;12.40;70.00;;;;;;5022231;28;20094;-79
2022/03/17 11:17:37;;;;;;;32.58;21.50;;;12.50;69.60;;;;;;5023296;28;20106;-78
2022/03/17 11:20:05;;;;;;;33.20;21.38;;;12.60;69.00;;;;;;4994844;28;20072;-77
2022/03/17 11:22:32;;;;;;;32.00;21.05;;;12.60;69.20;;;;;;5047635;28;20071;-80
2022/03/17 11:25:20;;;;;;;29.67;20.20;;;12.80;69.00;;;;;;5036651;28;20054;-79
2022/03/17 11:27:47;;;;;;;31.45;20.67;;;12.90;68.70;;;;;;5013479;28;20391;-79
2022/03/17 11:30:16;;;;;;;29.02;20.15;;;12.90;68.70;;;;;;5016765;28;20055;-79
2022/03/17 11:32:54;;;;;;;30.25;20.27;;;13.00;68.40;;;;;;5016841;28;20078;-80
2022/03/17 11:35:22;;;;;;;31.92;21.75;;;13.10;67.90;;;;;;4994457;28;20049;-78
2022/03/17 11:37:47;;;;;;;30.80;20.33;;;13.20;68.10;;;;;;5042194;28;20602;-78
2022/03/17 11:40:14;;;;;;;30.60;20.40;;;13.30;67.90;;;;;;5008816;28;20047;-79
2022/03/17 11:42:43;;;;;;;33.67;22.48;;;13.40;67.60;;;;;;5021870;28;20036;-79
2022/03/17 11:45:11;;;;;;;31.40;21.42;;;13.50;67.20;;;;;;5053533;28;20040;-79
2022/03/17 11:47:43;;;;;;;35.85;21.27;;;13.60;66.80;;;;;;5036776;28;20032;-78
2022/03/17 11:50:25;;;;;;;33.60;21.98;;;13.60;66.60;;;;;;5015381;28;20128;-78
2022/03/17 11:52:58;;;;;;;30.95;20.40;;;13.70;65.70;;;;;;5004144;28;20032;-79
2022/03/17 11:55:35;;;;;;;32.63;20.73;;;13.80;66.00;;;;;;5014123;28;20036;-79
2022/03/17 11:58:19;;;;;;;31.55;22.05;;;13.90;65.80;;;;;;5054553;28;20108;-78
2022/03/17 12:00:47;;;;;;;30.35;21.67;;;14.00;66.20;;;;;;5044413;28;20044;-78
2022/03/17 12:03:13;;;;;;;36.20;23.45;;;14.10;65.60;;;;;;5028758;28;20103;-78
2022/03/17 12:05:39;;;;;;;31.40;22.15;;;14.20;65.30;;;;;;5023485;28;20715;-79
2022/03/17 12:08:05;;;;;;;39.50;25.25;;;14.30;65.10;;;;;;5034771;28;20053;-79
2022/03/17 12:11:05;;;;;;;40.08;25.52;;;14.30;65.00;;;;;;5022888;28;20090;-79
2022/03/17 12:13:32;;;;;;;33.20;22.88;;;14.40;64.00;;;;;;5046606;28;20497;-80
2022/03/17 12:15:58;;;;;;;28.15;20.33;;;14.40;64.50;;;;;;5026647;28;20382;-78
2022/03/17 12:18:23;;;;;;;30.83;21.80;;;14.50;64.30;;;;;;5015014;28;20036;-78
2022/03/17 12:20:52;;;;;;;30.23;21.73;;;14.50;64.20;;;;;;5037618;28;20716;-79
2022/03/17 12:23:49;;;;;;;32.47;22.88;;;14.60;64.00;;;;;;5003115;28;20094;-79
2022/03/17 12:26:15;;;;;;;30.40;20.85;;;14.70;62.90;;;;;;5023326;28;20041;-79
2022/03/17 12:28:44;;;;;;;28.63;20.50;;;14.70;63.40;;;;;;5027387;28;20044;-78
2022/03/17 12:31:10;;;;;;;33.80;21.95;;;14.80;63.20;;;;;;5035743;28;20828;-79
2022/03/17 12:33:42;;;;;;;32.15;21.02;;;14.80;63.00;;;;;;5009507;28;20046;-79
2022/03/17 12:36:08;;;;;;;29.67;20.55;;;14.90;62.80;;;;;;5013778;28;20047;-78
2022/03/17 12:38:36;;;;;;;30.63;20.10;;;15.00;62.60;;;;;;5020141;28;20040;-78
2022/03/17 12:41:02;;;;;;;31.35;20.92;;;15.00;62.40;;;;;;5038405;28;20024;-79
2022/03/17 12:43:27;;;;;;;27.92;19.25;;;15.10;62.20;;;;;;5011241;28;20041;-78
2022/03/17 12:45:53;;;;;;;28.58;20.05;;;15.20;62.00;;;;;;5036334;28;20067;-78
2022/03/17 12:48:19;;;;;;;29.90;20.80;;;15.20;61.80;;;;;;5039432;28;20120;-79
2022/03/17 12:50:45;;;;;;;30.15;20.85;;;15.20;61.70;;;;;;5024574;28;20464;-79
2022/03/17 12:53:11;;;;;;;30.17;18.98;;;15.30;61.50;;;;;;5031957;28;20067;-79